Startex, South Carolina
Current Conditions -  °F | °C
As of 7:53 PM on Saturday 22 Nov 2014 (Local Time) from KGSP Reporting Station
Overcast Overcast  
Wind Chill: 46°   Ceiling: 3800
Heat Index: 46°   Visibility: 10mi
Dew Point: 26°   Wind: 0mph
Humidity: 46%   Direction: NA
Pressure: 30.32"   Gusts: NA
Location:  34.93°N, 82.1°W
Report Text: KGSP 230053Z 00000KT 10SM OVC038 08/M03 A3032 RMK AO2 SLP270 T00781033
Loading
Personal Weather Stations






























Interactive Weather Map New forecast layout! Learn more

10-Day Weather Forecast

Advertisements
Track Severe Weather on mobile